createdAt,value
2019-05-22T00:01:18.092Z,11.07
2019-05-22T00:04:00.396Z,13.90
2019-05-22T00:06:37.802Z,11.57
2019-05-22T00:09:10.720Z,15.30
2019-05-22T00:11:43.851Z,19.33
2019-05-22T00:14:15.614Z,9.77
2019-05-22T00:16:47.023Z,11.83
2019-05-22T00:19:20.137Z,9.47
2019-05-22T00:21:52.429Z,9.80
2019-05-22T00:24:25.583Z,8.80
2019-05-22T00:26:58.483Z,8.63
2019-05-22T00:29:30.875Z,5.90
2019-05-22T00:32:03.972Z,10.50
2019-05-22T00:34:36.561Z,10.50
2019-05-22T00:37:08.301Z,8.70
2019-05-22T00:39:39.029Z,15.07
2019-05-22T00:42:11.551Z,16.90
2019-05-22T00:44:43.683Z,8.83
2019-05-22T00:47:14.914Z,7.60
2019-05-22T00:49:50.160Z,7.67
2019-05-22T00:52:25.504Z,9.50
2019-05-22T00:55:10.576Z,7.03
2019-05-22T00:57:43.604Z,7.77
2019-05-22T01:00:20.470Z,6.07
2019-05-22T01:02:52.388Z,8.07
2019-05-22T01:05:25.011Z,13.40
2019-05-22T01:07:57.036Z,8.60
2019-05-22T01:10:29.820Z,11.93
2019-05-22T01:13:00.928Z,11.70
2019-05-22T01:15:32.963Z,11.77
2019-05-22T01:18:07.635Z,7.63
2019-05-22T01:20:41.766Z,10.67
2019-05-22T01:23:14.342Z,12.43
2019-05-22T01:25:46.106Z,15.30
2019-05-22T01:28:17.702Z,12.57
2019-05-22T01:30:50.899Z,16.23
2019-05-22T01:33:23.685Z,15.77
2019-05-22T01:36:00.070Z,11.00
2019-05-22T01:38:32.746Z,19.57
2019-05-22T01:41:10.951Z,13.00
2019-05-22T01:43:42.268Z,13.57
2019-05-22T01:46:14.495Z,19.73
2019-05-22T01:48:46.217Z,19.73
2019-05-22T01:51:18.324Z,16.07
2019-05-22T01:53:52.015Z,12.67
2019-05-22T01:56:25.015Z,11.77
2019-05-22T01:58:56.049Z,16.23
2019-05-22T02:01:28.017Z,14.70
2019-05-22T02:04:00.166Z,9.63
2019-05-22T02:06:31.087Z,13.43
2019-05-22T02:09:24.186Z,15.33
2019-05-22T02:11:58.082Z,15.63
2019-05-22T02:14:30.763Z,12.07
2019-05-22T02:17:03.348Z,18.30
2019-05-22T02:19:34.482Z,13.37
2019-05-22T02:22:07.163Z,16.70
2019-05-22T02:24:39.323Z,16.13
2019-05-22T02:27:10.372Z,9.80
2019-05-22T02:29:41.859Z,16.00
2019-05-22T02:32:14.070Z,13.13
2019-05-22T02:34:45.032Z,18.47
2019-05-22T02:37:17.849Z,15.97
2019-05-22T02:39:50.708Z,15.10
2019-05-22T02:42:28.548Z,11.60
2019-05-22T02:45:00.060Z,20.13
2019-05-22T02:47:30.783Z,15.47
2019-05-22T02:50:02.144Z,11.97
2019-05-22T02:52:33.813Z,14.60
2019-05-22T02:55:07.073Z,13.57
2019-05-22T02:57:38.546Z,12.33
2019-05-22T03:00:11.407Z,13.43
2019-05-22T03:02:54.447Z,12.20
2019-05-22T03:05:25.894Z,16.80
2019-05-22T03:07:58.489Z,13.70
2019-05-22T03:10:31.289Z,15.93
2019-05-22T03:13:02.716Z,17.07
2019-05-22T03:15:33.946Z,16.20
2019-05-22T03:18:08.292Z,17.43
2019-05-22T03:20:40.602Z,12.33
2019-05-22T03:23:35.024Z,14.30
2019-05-22T03:26:09.308Z,14.07
2019-05-22T03:28:41.211Z,17.40
2019-05-22T03:31:13.523Z,11.50
2019-05-22T03:33:45.541Z,15.80
2019-05-22T03:36:18.524Z,13.03
2019-05-22T03:38:49.458Z,14.47
2019-05-22T03:41:23.200Z,11.53
2019-05-22T03:43:55.948Z,16.97
2019-05-22T03:46:36.291Z,15.70
2019-05-22T03:49:27.987Z,16.77
2019-05-22T03:51:47.811Z,16.87
2019-05-22T03:54:19.876Z,15.57
2019-05-22T03:56:52.347Z,17.03
2019-05-22T03:59:23.906Z,14.50
2019-05-22T04:01:56.418Z,16.20
2019-05-22T04:04:36.933Z,15.47
2019-05-22T04:07:12.450Z,15.40
2019-05-22T04:09:46.192Z,17.93
2019-05-22T04:12:19.799Z,18.23
2019-05-22T04:14:51.338Z,29.50
2019-05-22T04:17:22.192Z,19.00
2019-05-22T04:19:54.610Z,16.13
2019-05-22T04:22:25.792Z,24.40
2019-05-22T04:24:56.840Z,18.80
2019-05-22T04:27:28.078Z,19.90
2019-05-22T04:29:59.944Z,18.80
2019-05-22T04:32:32.215Z,20.27
2019-05-22T04:35:10.307Z,22.70
2019-05-22T04:37:43.146Z,18.13
2019-05-22T04:40:25.922Z,13.93
2019-05-22T04:42:58.972Z,24.63
2019-05-22T04:45:30.382Z,29.80
2019-05-22T04:48:03.015Z,32.53
2019-05-22T04:50:35.441Z,41.10
2019-05-22T04:53:06.450Z,42.63
2019-05-22T04:55:37.300Z,41.50
2019-05-22T04:58:13.250Z,34.80
2019-05-22T05:00:44.618Z,31.13
2019-05-22T05:03:17.277Z,45.33
2019-05-22T05:05:54.758Z,38.10
2019-05-22T05:08:25.496Z,48.50
2019-05-22T05:10:58.388Z,37.40
2019-05-22T05:13:29.316Z,36.77
2019-05-22T05:16:00.364Z,39.40
2019-05-22T05:18:32.015Z,73.97
2019-05-22T05:21:03.238Z,39.37
2019-05-22T05:23:34.504Z,36.60
2019-05-22T05:26:05.241Z,36.07
2019-05-22T05:28:36.494Z,33.83
2019-05-22T05:31:07.393Z,34.87
2019-05-22T05:33:52.711Z,41.90
2019-05-22T05:36:23.839Z,43.13
2019-05-22T05:38:55.904Z,33.77
2019-05-22T05:41:27.802Z,35.30
2019-05-22T05:44:00.612Z,31.50
2019-05-22T05:46:32.064Z,44.73
2019-05-22T05:49:05.536Z,33.57
2019-05-22T05:51:38.586Z,35.27
2019-05-22T05:54:13.009Z,33.33
2019-05-22T05:56:46.095Z,36.83
2019-05-22T05:59:18.939Z,36.80
2019-05-22T06:01:53.519Z,38.97
2019-05-22T06:04:35.118Z,45.97
2019-05-22T06:07:21.185Z,42.67
2019-05-22T06:09:54.714Z,45.97
2019-05-22T06:12:26.024Z,41.97
2019-05-22T06:14:57.053Z,48.13
2019-05-22T06:17:58.521Z,43.90
2019-05-22T06:20:30.959Z,45.67
2019-05-22T06:23:28.551Z,46.90
2019-05-22T06:26:02.868Z,43.87
2019-05-22T06:28:38.713Z,40.93
2019-05-22T06:31:18.990Z,45.00
2019-05-22T06:33:49.732Z,47.90
2019-05-22T06:36:22.960Z,38.10
2019-05-22T06:39:00.926Z,28.17
2019-05-22T06:41:38.683Z,25.10
2019-05-22T06:44:21.838Z,25.03
2019-05-22T06:46:54.000Z,25.23
2019-05-22T06:49:36.775Z,35.63
2019-05-22T06:52:09.577Z,36.03
2019-05-22T06:54:40.635Z,36.17
2019-05-22T06:57:13.819Z,39.70
2019-05-22T06:59:45.655Z,42.33
2019-05-22T07:02:17.968Z,37.80
2019-05-22T07:04:50.459Z,39.53
2019-05-22T07:07:22.138Z,34.40
2019-05-22T07:09:55.874Z,38.30
2019-05-22T07:12:28.459Z,38.30
2019-05-22T07:15:04.485Z,37.30
2019-05-22T07:17:36.300Z,30.53
2019-05-22T07:20:08.128Z,32.57
2019-05-22T07:22:39.876Z,32.73
2019-05-22T07:25:12.081Z,65.60
2019-05-22T07:33:53.044Z,37.70
2019-05-22T07:36:25.791Z,48.63
2019-05-22T07:38:56.629Z,41.43
2019-05-22T07:41:27.621Z,43.80
2019-05-22T07:43:59.140Z,35.77
2019-05-22T07:46:31.285Z,37.77
2019-05-22T07:49:03.121Z,34.60
2019-05-22T07:51:50.606Z,33.70
2019-05-22T07:54:08.967Z,31.47
2019-05-22T07:56:41.813Z,30.37
2019-05-22T07:59:13.543Z,29.97
2019-05-22T08:01:44.174Z,27.47
2019-05-22T08:04:15.186Z,33.27
2019-05-22T08:06:46.426Z,35.57
2019-05-22T08:09:21.649Z,41.87
2019-05-22T08:11:54.333Z,38.60
2019-05-22T08:14:26.577Z,37.37
2019-05-22T08:16:57.178Z,40.83
2019-05-22T08:19:27.899Z,32.27
2019-05-22T08:22:07.107Z,37.40
2019-05-22T08:24:35.786Z,29.73
2019-05-22T08:27:08.014Z,26.93
2019-05-22T08:29:39.234Z,34.50
2019-05-22T08:32:09.864Z,33.50
2019-05-22T08:34:43.254Z,27.77
2019-05-22T08:37:18.801Z,31.73
2019-05-22T08:39:49.819Z,28.37
2019-05-22T08:42:21.825Z,34.83
2019-05-22T08:44:52.507Z,46.97
2019-05-22T08:47:23.654Z,53.20
2019-05-22T08:49:55.326Z,52.77
2019-05-22T08:52:26.664Z,48.80
2019-05-22T08:54:58.325Z,32.40
2019-05-22T08:57:30.708Z,28.47
2019-05-22T09:00:05.918Z,17.87
2019-05-22T09:02:36.824Z,18.90
2019-05-22T09:05:08.588Z,20.90
2019-05-22T09:07:40.093Z,16.97
2019-05-22T09:10:11.433Z,18.50
2019-05-22T09:12:42.243Z,14.43
2019-05-22T09:15:13.303Z,17.53
2019-05-22T09:17:45.108Z,11.47
2019-05-22T09:20:16.116Z,13.73
2019-05-22T09:22:47.331Z,13.83
2019-05-22T09:25:18.170Z,12.47
2019-05-22T09:27:49.121Z,15.73
2019-05-22T09:30:20.648Z,16.60
2019-05-22T09:32:52.897Z,10.20
2019-05-22T09:35:23.659Z,9.63
2019-05-22T09:37:54.383Z,10.87
2019-05-22T09:40:25.598Z,13.90
2019-05-22T09:42:57.016Z,18.40
2019-05-22T09:45:27.653Z,15.27
2019-05-22T09:47:59.551Z,22.80
2019-05-22T09:50:30.307Z,26.47
2019-05-22T09:53:00.916Z,35.67
2019-05-22T09:55:31.988Z,30.13
2019-05-22T09:58:02.789Z,36.10
2019-05-22T10:00:33.697Z,32.37
2019-05-22T10:03:05.806Z,33.97
2019-05-22T10:05:36.844Z,24.93
2019-05-22T10:08:07.746Z,20.20
2019-05-22T10:10:38.766Z,18.03
2019-05-22T10:13:09.909Z,15.10
2019-05-22T10:15:40.550Z,18.07
2019-05-22T10:18:11.196Z,24.10
2019-05-22T10:20:41.883Z,31.87
2019-05-22T10:23:15.864Z,38.97
2019-05-22T10:25:45.245Z,45.33
2019-05-22T10:28:16.443Z,40.23
2019-05-22T10:30:47.567Z,37.40
2019-05-22T10:33:18.516Z,31.77
2019-05-22T10:35:49.129Z,24.83
2019-05-22T10:38:20.601Z,32.00
2019-05-22T10:40:52.829Z,18.87
2019-05-22T10:43:23.797Z,14.77
2019-05-22T10:45:54.636Z,18.60
2019-05-22T10:48:25.644Z,16.87
2019-05-22T10:50:56.325Z,20.53
2019-05-22T10:53:33.523Z,18.57
2019-05-22T10:56:01.203Z,15.00
2019-05-22T10:58:32.494Z,11.83
2019-05-22T11:01:04.197Z,14.57
2019-05-22T11:03:35.465Z,10.20
2019-05-22T11:06:08.549Z,17.20
2019-05-22T11:08:40.746Z,13.73
2019-05-22T11:11:11.491Z,17.20
2019-05-22T11:14:00.053Z,13.17
2019-05-22T11:16:17.968Z,12.43
2019-05-22T11:18:49.316Z,10.27
2019-05-22T11:21:20.298Z,11.93
2019-05-22T11:23:53.037Z,12.47
2019-05-22T11:26:25.564Z,12.23
2019-05-22T11:28:58.389Z,9.07
2019-05-22T11:31:29.376Z,18.90
2019-05-22T11:34:02.069Z,10.87
2019-05-22T11:36:33.496Z,6.33
2019-05-22T11:39:05.600Z,13.30
2019-05-22T11:41:36.311Z,21.87
2019-05-22T11:44:08.936Z,6.87
2019-05-22T11:46:40.953Z,10.90
2019-05-22T11:49:12.425Z,9.87
2019-05-22T11:51:45.908Z,18.27
2019-05-22T11:54:18.025Z,16.60
2019-05-22T11:56:51.293Z,13.50
2019-05-22T11:59:24.323Z,14.93
2019-05-22T12:01:55.235Z,11.00
2019-05-22T12:04:26.363Z,11.40
2019-05-22T12:06:57.153Z,9.43
2019-05-22T12:09:28.729Z,11.17
2019-05-22T12:12:01.140Z,10.43
2019-05-22T12:14:32.340Z,9.07
2019-05-22T12:17:03.560Z,12.27
2019-05-22T12:19:34.589Z,9.50
2019-05-22T12:22:09.568Z,8.50
2019-05-22T12:24:40.855Z,4.83
2019-05-22T12:27:12.490Z,6.50
2019-05-22T12:29:43.625Z,8.80
2019-05-22T12:32:14.518Z,8.73
2019-05-22T12:34:45.231Z,8.90
2019-05-22T12:37:16.586Z,7.77
2019-05-22T12:39:47.485Z,10.90
2019-05-22T12:42:18.867Z,11.13
2019-05-22T12:44:49.814Z,12.63
2019-05-22T12:47:24.281Z,10.17
2019-05-22T12:49:55.781Z,10.37
2019-05-22T12:52:27.854Z,12.27
2019-05-22T12:54:59.158Z,12.07
2019-05-22T12:57:29.842Z,10.70
2019-05-22T13:00:02.823Z,9.90
2019-05-22T13:02:36.755Z,10.90
2019-05-22T13:05:13.822Z,11.13
2019-05-22T13:07:41.718Z,10.77
2019-05-22T13:10:12.841Z,10.70
2019-05-22T13:12:43.569Z,12.93
2019-05-22T13:15:15.971Z,10.97
2019-05-22T13:17:47.686Z,12.93
2019-05-22T13:20:41.843Z,11.07
2019-05-22T13:23:03.640Z,9.37
2019-05-22T13:25:37.112Z,9.43
2019-05-22T13:28:08.939Z,8.23
2019-05-22T13:30:42.880Z,9.53
2019-05-22T13:33:18.133Z,7.00
2019-05-22T13:35:48.781Z,9.87
2019-05-22T13:38:19.585Z,8.70
2019-05-22T13:40:52.303Z,9.67
2019-05-22T13:43:24.097Z,10.33
2019-05-22T13:45:55.097Z,8.73
2019-05-22T13:48:27.388Z,8.00
2019-05-22T13:50:59.400Z,6.83
2019-05-22T13:53:32.223Z,5.80
2019-05-22T13:56:04.711Z,5.67
2019-05-22T13:58:35.942Z,8.57
2019-05-22T14:01:13.800Z,8.00
2019-05-22T14:03:48.259Z,9.23
2019-05-22T14:06:20.453Z,6.53
2019-05-22T14:08:53.951Z,7.10
2019-05-22T14:11:28.428Z,6.93
2019-05-22T14:14:01.478Z,7.47
2019-05-22T14:16:47.554Z,8.23
2019-05-22T14:19:08.195Z,7.67
2019-05-22T14:21:40.242Z,8.60
2019-05-22T14:24:10.885Z,13.33
2019-05-22T14:26:41.579Z,12.07
2019-05-22T14:29:13.693Z,12.43
2019-05-22T14:31:44.432Z,10.70
2019-05-22T14:34:15.557Z,14.57
2019-05-22T14:36:46.570Z,13.87
2019-05-22T14:39:17.758Z,16.93
2019-05-22T14:41:48.611Z,14.80
2019-05-22T14:44:20.291Z,19.20
2019-05-22T14:46:50.986Z,18.00
2019-05-22T14:49:23.345Z,14.83
2019-05-22T14:51:56.324Z,14.47
2019-05-22T14:54:28.563Z,14.37
2019-05-22T14:57:01.047Z,12.67
2019-05-22T14:59:32.451Z,14.63
2019-05-22T15:02:04.263Z,15.53
2019-05-22T15:04:35.378Z,15.00
2019-05-22T15:07:10.374Z,16.10
2019-05-22T15:09:44.290Z,11.57
2019-05-22T15:12:15.064Z,12.80
2019-05-22T15:14:45.854Z,7.50
2019-05-22T15:17:31.940Z,6.77
2019-05-22T15:19:50.917Z,6.17
2019-05-22T15:22:21.808Z,7.20
2019-05-22T15:24:55.984Z,7.53
2019-05-22T15:27:28.168Z,7.63
2019-05-22T15:30:00.357Z,6.87
2019-05-22T15:32:31.815Z,8.57
2019-05-22T15:35:06.299Z,10.77
2019-05-22T15:37:37.726Z,8.53
2019-05-22T15:40:12.824Z,9.23
2019-05-22T15:42:45.513Z,8.60
2019-05-22T15:45:24.712Z,7.33
2019-05-22T15:48:01.887Z,11.97
2019-05-22T15:50:35.349Z,8.20
2019-05-22T15:53:13.377Z,12.73
2019-05-22T15:55:42.880Z,10.50
2019-05-22T15:58:15.455Z,11.47
2019-05-22T16:00:50.661Z,12.63
2019-05-22T16:03:24.817Z,12.40
2019-05-22T16:05:57.106Z,12.87
2019-05-22T16:08:30.264Z,10.83
2019-05-22T16:11:09.314Z,11.03
2019-05-22T16:13:41.529Z,12.40
2019-05-22T16:16:13.241Z,16.47
2019-05-22T16:18:48.612Z,12.40
2019-05-22T16:21:22.832Z,10.37
2019-05-22T16:23:55.024Z,10.83
2019-05-22T16:26:27.118Z,12.97
2019-05-22T16:29:01.482Z,14.57
2019-05-22T16:31:32.926Z,13.43
2019-05-22T16:34:11.548Z,10.67
2019-05-22T16:36:40.230Z,17.00
2019-05-22T16:39:12.270Z,11.73
2019-05-22T16:41:43.227Z,14.13
2019-05-22T16:44:15.113Z,15.23
2019-05-22T16:46:47.116Z,12.20
2019-05-22T16:49:17.999Z,13.77
2019-05-22T16:51:48.914Z,15.57
2019-05-22T16:54:21.120Z,15.30
2019-05-22T16:56:52.988Z,12.63
2019-05-22T16:59:23.738Z,13.33
2019-05-22T17:01:59.208Z,13.27
2019-05-22T17:04:28.036Z,16.23
2019-05-22T17:07:00.395Z,14.80
2019-05-22T17:09:32.624Z,12.77
2019-05-22T17:12:05.199Z,16.63
2019-05-22T17:14:37.239Z,15.83
2019-05-22T17:17:09.952Z,15.17
2019-05-22T17:19:41.297Z,14.67
2019-05-22T17:22:14.248Z,15.67
2019-05-22T17:24:45.816Z,18.27
2019-05-22T17:27:17.451Z,17.20
2019-05-22T17:29:51.007Z,19.43
2019-05-22T17:32:23.912Z,21.93
2019-05-22T17:34:55.025Z,19.87
2019-05-22T17:37:26.865Z,20.67
2019-05-22T17:39:58.878Z,24.40
2019-05-22T17:42:32.016Z,27.33
2019-05-22T17:45:05.017Z,23.83
2019-05-22T17:47:36.263Z,27.03
2019-05-22T17:50:25.426Z,23.20
2019-05-22T17:52:45.352Z,27.93
2019-05-22T17:55:17.478Z,19.00
2019-05-22T17:57:48.822Z,20.60
2019-05-22T18:00:25.402Z,18.53
2019-05-22T18:02:56.974Z,19.87
2019-05-22T18:05:29.194Z,18.87
2019-05-22T18:08:01.082Z,16.57
2019-05-22T18:10:39.854Z,16.20
2019-05-22T18:13:09.206Z,16.40
2019-05-22T18:15:40.452Z,15.80
2019-05-22T18:18:12.937Z,16.47
2019-05-22T18:20:44.605Z,18.50
2019-05-22T18:23:15.408Z,18.47
2019-05-22T18:25:51.684Z,16.67
2019-05-22T18:28:25.220Z,17.57
2019-05-22T18:30:56.952Z,20.30
2019-05-22T18:33:28.086Z,16.90
2019-05-22T18:35:59.321Z,18.27
2019-05-22T18:38:30.477Z,19.43
2019-05-22T18:41:01.711Z,27.63
2019-05-22T18:43:35.879Z,18.40
2019-05-22T18:46:06.870Z,21.27
2019-05-22T18:48:38.147Z,25.13
2019-05-22T18:51:09.854Z,27.27
2019-05-22T18:53:40.823Z,27.63
2019-05-22T18:56:12.063Z,27.87
2019-05-22T18:58:43.804Z,36.00
2019-05-22T19:01:16.534Z,25.87
2019-05-22T19:03:47.519Z,28.10
2019-05-22T19:06:29.762Z,24.37
2019-05-22T19:08:52.511Z,26.23
2019-05-22T19:11:23.725Z,25.03
2019-05-22T19:13:54.668Z,26.10
2019-05-22T19:16:26.217Z,25.57
2019-05-22T19:19:00.537Z,26.80
2019-05-22T19:21:31.334Z,25.80
2019-05-22T19:24:03.440Z,23.83
2019-05-22T19:26:34.076Z,27.60
2019-05-22T19:29:05.534Z,23.80
2019-05-22T19:31:36.350Z,25.90
2019-05-22T19:34:09.280Z,27.80
2019-05-22T19:36:45.847Z,28.87
2019-05-22T19:39:18.963Z,27.43
2019-05-22T19:42:02.117Z,31.57
2019-05-22T19:44:22.995Z,28.80
2019-05-22T19:46:53.902Z,30.97
2019-05-22T19:49:25.216Z,27.13
2019-05-22T19:51:58.438Z,24.93
2019-05-22T19:54:29.498Z,23.10
2019-05-22T19:57:00.600Z,79.87
2019-05-22T19:59:31.736Z,26.40
2019-05-22T20:02:03.233Z,25.40
2019-05-22T20:04:39.084Z,21.07
2019-05-22T20:07:18.704Z,27.43
2019-05-22T20:09:49.888Z,19.60
2019-05-22T20:12:24.923Z,19.10
2019-05-22T20:14:56.441Z,14.03
2019-05-22T20:17:30.040Z,15.53
2019-05-22T20:20:02.011Z,16.10
2019-05-22T20:22:34.186Z,15.07
2019-05-22T20:25:09.375Z,16.87
2019-05-22T20:27:41.490Z,17.30
2019-05-22T20:30:15.912Z,16.67
2019-05-22T20:32:46.565Z,16.50
2019-05-22T20:35:19.276Z,18.40
2019-05-22T20:37:52.126Z,21.00
2019-05-22T20:40:23.612Z,25.40
2019-05-22T20:42:54.712Z,25.97
2019-05-22T20:45:25.758Z,26.57
2019-05-22T20:48:07.922Z,23.60
2019-05-22T20:50:40.769Z,20.27
2019-05-22T20:53:13.610Z,21.17
2019-05-22T20:55:45.551Z,17.93
2019-05-22T20:58:17.927Z,14.13
2019-05-22T21:00:51.570Z,14.73
2019-05-22T21:03:23.716Z,12.00
2019-05-22T21:05:54.766Z,16.70
2019-05-22T21:08:29.472Z,13.77
2019-05-22T21:11:01.654Z,11.50
2019-05-22T21:13:34.011Z,10.60
2019-05-22T21:16:05.524Z,8.43
2019-05-22T21:18:39.587Z,7.83
2019-05-22T21:21:10.279Z,12.87
2019-05-22T21:23:43.432Z,8.33
2019-05-22T21:26:15.618Z,8.60
2019-05-22T21:28:48.152Z,8.90
2019-05-22T21:31:21.124Z,10.60
2019-05-22T21:33:52.077Z,14.57
2019-05-22T21:36:23.961Z,9.10
2019-05-22T21:38:55.704Z,8.33
2019-05-22T21:41:26.295Z,10.40
2019-05-22T21:43:58.937Z,10.80
2019-05-22T21:46:29.759Z,8.90
2019-05-22T21:49:01.712Z,10.47
2019-05-22T21:51:45.198Z,11.37
2019-05-22T21:54:16.471Z,10.57
2019-05-22T21:56:50.473Z,10.33
2019-05-22T21:59:21.749Z,13.30
2019-05-22T22:01:54.673Z,10.97
2019-05-22T22:04:30.923Z,11.60
2019-05-22T22:07:02.083Z,14.23
2019-05-22T22:09:32.965Z,13.80
2019-05-22T22:12:04.912Z,11.77
2019-05-22T22:14:37.195Z,15.80
2019-05-22T22:17:10.232Z,14.80
2019-05-22T22:19:41.248Z,14.57
2019-05-22T22:22:16.334Z,14.40
2019-05-22T22:24:48.058Z,13.50
2019-05-22T22:27:20.058Z,16.53
2019-05-22T22:29:53.628Z,13.03
2019-05-22T22:32:26.406Z,15.93
2019-05-22T22:34:59.070Z,12.63
2019-05-22T22:37:31.582Z,13.83
2019-05-22T22:40:05.848Z,11.73
2019-05-22T22:42:38.116Z,12.90
2019-05-22T22:45:13.193Z,12.57
2019-05-22T22:47:47.874Z,11.10
2019-05-22T22:50:18.795Z,14.67
2019-05-22T22:52:49.509Z,12.50
2019-05-22T22:55:22.178Z,12.70
2019-05-22T22:57:53.351Z,14.90
2019-05-22T23:00:27.691Z,13.33
2019-05-22T23:03:00.027Z,14.43
2019-05-22T23:05:33.145Z,15.97
2019-05-22T23:08:05.663Z,15.70
2019-05-22T23:10:36.499Z,12.30
2019-05-22T23:13:07.430Z,13.93
2019-05-22T23:15:42.453Z,14.00
2019-05-22T23:18:19.809Z,15.40
2019-05-22T23:20:49.687Z,13.37
2019-05-22T23:23:22.957Z,20.97
2019-05-22T23:25:54.625Z,16.57
2019-05-22T23:28:34.582Z,17.73
2019-05-22T23:30:59.921Z,16.83
2019-05-22T23:33:31.460Z,18.17
2019-05-22T23:36:02.842Z,18.87
2019-05-22T23:38:39.316Z,18.63
2019-05-22T23:41:10.456Z,16.83
2019-05-22T23:43:42.632Z,18.13
2019-05-22T23:46:14.941Z,18.53
2019-05-22T23:48:46.438Z,20.43
2019-05-22T23:51:18.771Z,19.60
2019-05-22T23:53:51.181Z,21.47
2019-05-22T23:56:22.523Z,17.67
2019-05-22T23:58:54.965Z,18.77
